Terminal Aerodrome Forecast
Issued by NWS

Home | Current Version | Previous Version | Graphics & Text | Print | Product List | Glossary On
Versions: 1 2 3 4 5 6 7 8 9 10 11 12 13 14 15 16 17 18
000
FTUS43 KBIS 271000 AAA
TAFDIK
TAF AMD
KDIK 271046Z 2711/2806 10007KT P6SM VCFG SCT002
      TEMPO 2712/2715 1SM BR VV002
     FM271500 17009KT P6SM SKC
     FM280100 16006KT P6SM SCT035=

USA.gov is the U.S. government's official web portal to all federal, state and local government web resources and services.